sensor_id;sensor_type;location;lat;lon;timestamp;P1;durP1;ratioP1;P2;durP2;ratioP2
31004;SDS011;17676;52.254;4.490;2023-02-28T00:01:02;4.40;;;1.17;;
31004;SDS011;17676;52.254;4.490;2023-02-28T00:03:27;4.67;;;1.40;;
31004;SDS011;17676;52.254;4.490;2023-02-28T00:05:53;6.13;;;1.47;;
31004;SDS011;17676;52.254;4.490;2023-02-28T00:08:18;3.50;;;1.40;;
31004;SDS011;17676;52.254;4.490;2023-02-28T00:10:43;4.93;;;1.50;;
31004;SDS011;17676;52.254;4.490;2023-02-28T00:13:09;3.17;;;1.33;;
31004;SDS011;17676;52.254;4.490;2023-02-28T00:15:34;5.87;;;1.33;;
31004;SDS011;17676;52.254;4.490;2023-02-28T00:17:59;5.43;;;1.47;;
31004;SDS011;17676;52.254;4.490;2023-02-28T00:20:25;4.67;;;1.50;;
31004;SDS011;17676;52.254;4.490;2023-02-28T00:22:51;4.70;;;2.00;;
31004;SDS011;17676;52.254;4.490;2023-02-28T00:25:18;10.40;;;1.93;;
31004;SDS011;17676;52.254;4.490;2023-02-28T00:27:44;4.33;;;1.30;;
31004;SDS011;17676;52.254;4.490;2023-02-28T00:30:11;6.20;;;1.73;;
31004;SDS011;17676;52.254;4.490;2023-02-28T00:32:37;3.30;;;1.23;;
31004;SDS011;17676;52.254;4.490;2023-02-28T00:35:02;6.60;;;1.53;;
31004;SDS011;17676;52.254;4.490;2023-02-28T00:37:28;4.40;;;1.60;;
31004;SDS011;17676;52.254;4.490;2023-02-28T00:39:53;3.57;;;1.57;;
31004;SDS011;17676;52.254;4.490;2023-02-28T00:42:18;7.87;;;1.73;;
31004;SDS011;17676;52.254;4.490;2023-02-28T00:44:44;5.50;;;2.13;;
31004;SDS011;17676;52.254;4.490;2023-02-28T00:47:09;3.80;;;1.63;;
31004;SDS011;17676;52.254;4.490;2023-02-28T00:49:34;7.27;;;1.73;;
31004;SDS011;17676;52.254;4.490;2023-02-28T00:51:59;6.17;;;2.20;;
31004;SDS011;17676;52.254;4.490;2023-02-28T00:54:25;4.40;;;1.97;;
31004;SDS011;17676;52.254;4.490;2023-02-28T00:56:52;10.83;;;2.20;;
31004;SDS011;17676;52.254;4.490;2023-02-28T00:59:18;10.00;;;2.13;;
31004;SDS011;17676;52.254;4.490;2023-02-28T01:01:44;3.30;;;1.60;;
31004;SDS011;17676;52.254;4.490;2023-02-28T01:04:10;7.17;;;2.50;;
31004;SDS011;17676;52.254;4.490;2023-02-28T01:06:35;6.43;;;2.03;;
31004;SDS011;17676;52.254;4.490;2023-02-28T01:09:01;5.33;;;1.77;;
31004;SDS011;17676;52.254;4.490;2023-02-28T01:11:27;10.57;;;2.10;;
31004;SDS011;17676;52.254;4.490;2023-02-28T01:13:52;9.00;;;2.40;;
31004;SDS011;17676;52.254;4.490;2023-02-28T01:16:17;6.67;;;1.60;;
31004;SDS011;17676;52.254;4.490;2023-02-28T01:18:43;8.63;;;1.50;;
31004;SDS011;17676;52.254;4.490;2023-02-28T01:21:13;7.63;;;1.97;;
31004;SDS011;17676;52.254;4.490;2023-02-28T01:23:39;6.13;;;1.77;;
31004;SDS011;17676;52.254;4.490;2023-02-28T01:26:09;7.70;;;2.47;;
31004;SDS011;17676;52.254;4.490;2023-02-28T01:28:35;9.27;;;2.20;;
31004;SDS011;17676;52.254;4.490;2023-02-28T01:31:01;7.03;;;1.87;;
31004;SDS011;17676;52.254;4.490;2023-02-28T01:33:26;4.97;;;1.73;;
31004;SDS011;17676;52.254;4.490;2023-02-28T01:36:05;4.60;;;2.13;;
31004;SDS011;17676;52.254;4.490;2023-02-28T01:38:31;4.70;;;2.27;;
31004;SDS011;17676;52.254;4.490;2023-02-28T01:40:57;8.07;;;1.97;;
31004;SDS011;17676;52.254;4.490;2023-02-28T01:43:24;6.43;;;1.73;;
31004;SDS011;17676;52.254;4.490;2023-02-28T01:45:50;10.67;;;3.37;;
31004;SDS011;17676;52.254;4.490;2023-02-28T01:48:15;8.50;;;2.00;;
31004;SDS011;17676;52.254;4.490;2023-02-28T01:50:42;7.30;;;2.40;;
31004;SDS011;17676;52.254;4.490;2023-02-28T01:53:10;10.27;;;2.53;;
31004;SDS011;17676;52.254;4.490;2023-02-28T01:55:36;5.63;;;2.50;;
31004;SDS011;17676;52.254;4.490;2023-02-28T01:58:02;7.10;;;2.47;;
31004;SDS011;17676;52.254;4.490;2023-02-28T02:00:29;8.50;;;2.70;;
31004;SDS011;17676;52.254;4.490;2023-02-28T02:03:03;7.23;;;2.17;;
31004;SDS011;17676;52.254;4.490;2023-02-28T02:05:30;8.50;;;2.37;;
31004;SDS011;17676;52.254;4.490;2023-02-28T02:08:03;7.43;;;2.30;;
31004;SDS011;17676;52.254;4.490;2023-02-28T02:10:35;5.13;;;2.33;;
31004;SDS011;17676;52.254;4.490;2023-02-28T02:26:23;9.37;;;2.00;;
31004;SDS011;17676;52.254;4.490;2023-02-28T02:31:42;4.73;;;2.10;;
31004;SDS011;17676;52.254;4.490;2023-02-28T02:34:26;8.73;;;2.00;;
31004;SDS011;17676;52.254;4.490;2023-02-28T02:36:55;3.70;;;1.73;;
31004;SDS011;17676;52.254;4.490;2023-02-28T02:39:39;6.40;;;1.87;;
31004;SDS011;17676;52.254;4.490;2023-02-28T02:42:12;7.17;;;1.87;;
31004;SDS011;17676;52.254;4.490;2023-02-28T02:44:49;6.63;;;1.83;;
31004;SDS011;17676;52.254;4.490;2023-02-28T02:47:19;12.33;;;1.97;;
31004;SDS011;17676;52.254;4.490;2023-02-28T02:49:47;6.17;;;2.27;;
31004;SDS011;17676;52.254;4.490;2023-02-28T02:52:14;6.70;;;1.90;;
31004;SDS011;17676;52.254;4.490;2023-02-28T02:54:41;8.10;;;2.40;;
31004;SDS011;17676;52.254;4.490;2023-02-28T02:57:10;4.87;;;1.90;;
31004;SDS011;17676;52.254;4.490;2023-02-28T02:59:38;7.70;;;2.33;;
31004;SDS011;17676;52.254;4.490;2023-02-28T03:02:05;5.93;;;2.30;;
31004;SDS011;17676;52.254;4.490;2023-02-28T03:04:32;9.77;;;2.27;;
31004;SDS011;17676;52.254;4.490;2023-02-28T03:06:59;11.77;;;2.50;;
31004;SDS011;17676;52.254;4.490;2023-02-28T03:09:24;7.87;;;2.07;;
31004;SDS011;17676;52.254;4.490;2023-02-28T03:11:53;5.70;;;1.80;;
31004;SDS011;17676;52.254;4.490;2023-02-28T03:26:50;4.93;;;1.70;;
31004;SDS011;17676;52.254;4.490;2023-02-28T03:31:44;5.27;;;2.27;;
31004;SDS011;17676;52.254;4.490;2023-02-28T03:34:15;10.83;;;2.77;;
31004;SDS011;17676;52.254;4.490;2023-02-28T03:36:44;5.40;;;2.93;;
31004;SDS011;17676;52.254;4.490;2023-02-28T03:39:20;9.27;;;2.30;;
31004;SDS011;17676;52.254;4.490;2023-02-28T03:42:05;6.80;;;2.80;;
31004;SDS011;17676;52.254;4.490;2023-02-28T03:44:36;5.03;;;2.53;;
31004;SDS011;17676;52.254;4.490;2023-02-28T03:49:42;7.27;;;3.00;;
31004;SDS011;17676;52.254;4.490;2023-02-28T03:52:10;7.53;;;3.37;;
31004;SDS011;17676;52.254;4.490;2023-02-28T03:54:38;7.40;;;2.60;;
31004;SDS011;17676;52.254;4.490;2023-02-28T03:59:55;7.27;;;3.43;;
31004;SDS011;17676;52.254;4.490;2023-02-28T04:02:21;5.40;;;3.10;;
31004;SDS011;17676;52.254;4.490;2023-02-28T04:04:46;4.07;;;2.40;;
31004;SDS011;17676;52.254;4.490;2023-02-28T04:07:14;5.27;;;3.27;;
31004;SDS011;17676;52.254;4.490;2023-02-28T04:09:39;6.00;;;3.77;;
31004;SDS011;17676;52.254;4.490;2023-02-28T04:12:05;6.83;;;3.00;;
31004;SDS011;17676;52.254;4.490;2023-02-28T04:14:30;10.00;;;3.23;;
31004;SDS011;17676;52.254;4.490;2023-02-28T04:16:56;12.17;;;3.80;;
31004;SDS011;17676;52.254;4.490;2023-02-28T04:19:21;7.53;;;3.67;;
31004;SDS011;17676;52.254;4.490;2023-02-28T04:21:47;9.43;;;3.70;;
31004;SDS011;17676;52.254;4.490;2023-02-28T04:24:13;9.40;;;3.17;;
31004;SDS011;17676;52.254;4.490;2023-02-28T04:26:40;7.60;;;3.97;;
31004;SDS011;17676;52.254;4.490;2023-02-28T04:29:06;5.77;;;3.83;;
31004;SDS011;17676;52.254;4.490;2023-02-28T04:31:32;8.83;;;3.90;;
31004;SDS011;17676;52.254;4.490;2023-02-28T04:33:57;7.33;;;3.47;;
31004;SDS011;17676;52.254;4.490;2023-02-28T04:36:23;9.13;;;4.30;;
31004;SDS011;17676;52.254;4.490;2023-02-28T04:38:51;8.60;;;4.37;;
31004;SDS011;17676;52.254;4.490;2023-02-28T04:41:16;7.73;;;3.83;;
31004;SDS011;17676;52.254;4.490;2023-02-28T04:43:42;5.13;;;3.70;;
31004;SDS011;17676;52.254;4.490;2023-02-28T04:46:07;6.93;;;3.97;;
31004;SDS011;17676;52.254;4.490;2023-02-28T04:48:34;10.07;;;4.93;;
31004;SDS011;17676;52.254;4.490;2023-02-28T04:51:06;6.07;;;4.43;;
31004;SDS011;17676;52.254;4.490;2023-02-28T04:53:32;11.13;;;4.63;;
31004;SDS011;17676;52.254;4.490;2023-02-28T04:55:57;12.97;;;4.20;;
31004;SDS011;17676;52.254;4.490;2023-02-28T04:58:23;10.93;;;5.40;;
31004;SDS011;17676;52.254;4.490;2023-02-28T05:00:49;9.50;;;4.43;;
31004;SDS011;17676;52.254;4.490;2023-02-28T05:03:14;10.43;;;5.03;;
31004;SDS011;17676;52.254;4.490;2023-02-28T05:05:39;9.23;;;4.40;;
31004;SDS011;17676;52.254;4.490;2023-02-28T05:08:05;9.43;;;4.70;;
31004;SDS011;17676;52.254;4.490;2023-02-28T05:10:30;9.97;;;5.37;;
31004;SDS011;17676;52.254;4.490;2023-02-28T05:12:55;11.87;;;4.70;;
31004;SDS011;17676;52.254;4.490;2023-02-28T05:15:21;11.40;;;5.40;;
31004;SDS011;17676;52.254;4.490;2023-02-28T05:17:46;10.63;;;5.27;;
31004;SDS011;17676;52.254;4.490;2023-02-28T05:20:12;9.07;;;5.03;;
31004;SDS011;17676;52.254;4.490;2023-02-28T05:22:40;7.57;;;5.17;;
31004;SDS011;17676;52.254;4.490;2023-02-28T05:25:06;8.73;;;4.93;;
31004;SDS011;17676;52.254;4.490;2023-02-28T05:27:32;8.40;;;5.47;;
31004;SDS011;17676;52.254;4.490;2023-02-28T05:29:57;9.13;;;5.23;;
31004;SDS011;17676;52.254;4.490;2023-02-28T05:32:23;6.57;;;5.17;;
31004;SDS011;17676;52.254;4.490;2023-02-28T05:34:49;10.43;;;5.53;;
31004;SDS011;17676;52.254;4.490;2023-02-28T05:37:14;9.50;;;5.07;;
31004;SDS011;17676;52.254;4.490;2023-02-28T05:39:40;9.30;;;5.80;;
31004;SDS011;17676;52.254;4.490;2023-02-28T05:42:06;10.07;;;5.40;;
31004;SDS011;17676;52.254;4.490;2023-02-28T05:44:31;9.90;;;5.83;;
31004;SDS011;17676;52.254;4.490;2023-02-28T05:46:57;8.43;;;5.57;;
31004;SDS011;17676;52.254;4.490;2023-02-28T05:49:22;10.70;;;6.80;;
31004;SDS011;17676;52.254;4.490;2023-02-28T05:51:47;8.50;;;5.63;;
31004;SDS011;17676;52.254;4.490;2023-02-28T05:54:13;8.70;;;5.83;;
31004;SDS011;17676;52.254;4.490;2023-02-28T05:56:41;9.20;;;5.70;;
31004;SDS011;17676;52.254;4.490;2023-02-28T05:59:09;10.73;;;5.40;;
31004;SDS011;17676;52.254;4.490;2023-02-28T06:01:41;10.00;;;5.80;;
31004;SDS011;17676;52.254;4.490;2023-02-28T06:04:12;12.27;;;5.77;;
31004;SDS011;17676;52.254;4.490;2023-02-28T06:06:40;12.20;;;5.60;;
31004;SDS011;17676;52.254;4.490;2023-02-28T06:09:05;11.50;;;5.77;;
31004;SDS011;17676;52.254;4.490;2023-02-28T06:11:30;12.57;;;5.87;;
31004;SDS011;17676;52.254;4.490;2023-02-28T06:13:57;8.77;;;5.10;;
31004;SDS011;17676;52.254;4.490;2023-02-28T06:16:25;11.60;;;5.70;;
31004;SDS011;17676;52.254;4.490;2023-02-28T06:18:50;14.07;;;5.77;;
31004;SDS011;17676;52.254;4.490;2023-02-28T06:21:16;10.93;;;6.03;;
31004;SDS011;17676;52.254;4.490;2023-02-28T06:23:41;9.63;;;5.43;;
31004;SDS011;17676;52.254;4.490;2023-02-28T06:26:06;7.93;;;5.17;;
31004;SDS011;17676;52.254;4.490;2023-02-28T06:28:31;11.77;;;6.60;;
31004;SDS011;17676;52.254;4.490;2023-02-28T06:30:57;10.07;;;6.30;;
31004;SDS011;17676;52.254;4.490;2023-02-28T06:33:22;11.53;;;6.07;;
31004;SDS011;17676;52.254;4.490;2023-02-28T06:35:51;9.40;;;5.60;;
31004;SDS011;17676;52.254;4.490;2023-02-28T06:38:16;7.15;;;5.28;;
31004;SDS011;17676;52.254;4.490;2023-02-28T06:40:43;7.73;;;5.33;;
31004;SDS011;17676;52.254;4.490;2023-02-28T06:43:08;11.07;;;5.80;;
31004;SDS011;17676;52.254;4.490;2023-02-28T06:45:36;9.00;;;6.30;;
31004;SDS011;17676;52.254;4.490;2023-02-28T06:48:02;11.87;;;6.57;;
31004;SDS011;17676;52.254;4.490;2023-02-28T06:50:27;9.90;;;6.43;;
31004;SDS011;17676;52.254;4.490;2023-02-28T06:52:54;9.43;;;7.00;;
31004;SDS011;17676;52.254;4.490;2023-02-28T06:55:20;11.90;;;7.57;;
31004;SDS011;17676;52.254;4.490;2023-02-28T06:57:45;9.97;;;7.30;;
31004;SDS011;17676;52.254;4.490;2023-02-28T07:00:11;10.03;;;8.23;;
31004;SDS011;17676;52.254;4.490;2023-02-28T07:02:36;11.63;;;8.73;;
31004;SDS011;17676;52.254;4.490;2023-02-28T07:05:02;14.37;;;8.60;;
31004;SDS011;17676;52.254;4.490;2023-02-28T07:07:32;11.23;;;9.50;;
31004;SDS011;17676;52.254;4.490;2023-02-28T07:09:58;19.23;;;10.17;;
31004;SDS011;17676;52.254;4.490;2023-02-28T07:12:23;11.90;;;9.30;;
31004;SDS011;17676;52.254;4.490;2023-02-28T07:14:49;15.60;;;9.73;;
31004;SDS011;17676;52.254;4.490;2023-02-28T07:17:15;16.50;;;11.00;;
31004;SDS011;17676;52.254;4.490;2023-02-28T07:19:41;16.97;;;9.87;;
31004;SDS011;17676;52.254;4.490;2023-02-28T07:22:06;14.93;;;9.50;;
31004;SDS011;17676;52.254;4.490;2023-02-28T07:24:34;14.60;;;9.43;;
31004;SDS011;17676;52.254;4.490;2023-02-28T07:26:59;14.30;;;10.53;;
31004;SDS011;17676;52.254;4.490;2023-02-28T07:29:26;16.43;;;10.77;;
31004;SDS011;17676;52.254;4.490;2023-02-28T07:31:51;13.77;;;10.23;;
31004;SDS011;17676;52.254;4.490;2023-02-28T07:34:18;15.13;;;11.73;;
31004;SDS011;17676;52.254;4.490;2023-02-28T07:36:43;15.93;;;11.30;;
31004;SDS011;17676;52.254;4.490;2023-02-28T07:39:09;18.77;;;10.33;;
31004;SDS011;17676;52.254;4.490;2023-02-28T07:41:35;11.10;;;9.73;;
31004;SDS011;17676;52.254;4.490;2023-02-28T07:44:04;12.93;;;8.10;;
31004;SDS011;17676;52.254;4.490;2023-02-28T07:46:29;12.67;;;7.77;;
31004;SDS011;17676;52.254;4.490;2023-02-28T07:49:00;11.07;;;7.23;;
31004;SDS011;17676;52.254;4.490;2023-02-28T07:51:25;8.00;;;6.97;;
31004;SDS011;17676;52.254;4.490;2023-02-28T07:53:50;9.83;;;7.30;;
31004;SDS011;17676;52.254;4.490;2023-02-28T07:56:16;9.70;;;7.00;;
31004;SDS011;17676;52.254;4.490;2023-02-28T07:58:41;6.87;;;4.83;;
31004;SDS011;17676;52.254;4.490;2023-02-28T08:01:07;5.47;;;4.63;;
31004;SDS011;17676;52.254;4.490;2023-02-28T08:03:33;6.63;;;5.90;;
31004;SDS011;17676;52.254;4.490;2023-02-28T08:05:58;7.07;;;6.37;;
31004;SDS011;17676;52.254;4.490;2023-02-28T08:08:23;7.83;;;6.47;;
31004;SDS011;17676;52.254;4.490;2023-02-28T08:10:49;9.90;;;6.97;;
31004;SDS011;17676;52.254;4.490;2023-02-28T08:13:14;8.03;;;5.97;;
31004;SDS011;17676;52.254;4.490;2023-02-28T08:15:41;10.00;;;6.40;;
31004;SDS011;17676;52.254;4.490;2023-02-28T08:18:07;7.83;;;6.10;;
31004;SDS011;17676;52.254;4.490;2023-02-28T08:20:32;9.10;;;6.80;;
31004;SDS011;17676;52.254;4.490;2023-02-28T08:22:57;7.47;;;6.43;;
31004;SDS011;17676;52.254;4.490;2023-02-28T08:25:23;9.30;;;6.90;;
31004;SDS011;17676;52.254;4.490;2023-02-28T08:27:50;8.70;;;7.20;;
31004;SDS011;17676;52.254;4.490;2023-02-28T08:30:15;9.60;;;6.57;;
31004;SDS011;17676;52.254;4.490;2023-02-28T08:32:41;8.37;;;6.07;;
31004;SDS011;17676;52.254;4.490;2023-02-28T08:35:06;6.53;;;5.80;;
31004;SDS011;17676;52.254;4.490;2023-02-28T08:37:34;7.90;;;7.20;;
31004;SDS011;17676;52.254;4.490;2023-02-28T08:39:59;9.00;;;6.83;;
31004;SDS011;17676;52.254;4.490;2023-02-28T08:42:24;10.00;;;7.17;;
31004;SDS011;17676;52.254;4.490;2023-02-28T08:44:50;7.93;;;6.37;;
31004;SDS011;17676;52.254;4.490;2023-02-28T08:47:15;8.03;;;7.27;;
31004;SDS011;17676;52.254;4.490;2023-02-28T08:49:41;7.67;;;6.70;;
31004;SDS011;17676;52.254;4.490;2023-02-28T08:52:06;7.33;;;6.60;;
31004;SDS011;17676;52.254;4.490;2023-02-28T08:54:31;9.47;;;7.43;;
31004;SDS011;17676;52.254;4.490;2023-02-28T08:56:58;8.07;;;7.37;;
31004;SDS011;17676;52.254;4.490;2023-02-28T08:59:23;7.53;;;6.83;;
31004;SDS011;17676;52.254;4.490;2023-02-28T09:01:48;8.80;;;7.17;;
31004;SDS011;17676;52.254;4.490;2023-02-28T09:04:17;7.00;;;6.30;;
31004;SDS011;17676;52.254;4.490;2023-02-28T09:06:42;7.43;;;6.73;;
31004;SDS011;17676;52.254;4.490;2023-02-28T09:09:09;8.80;;;7.50;;
31004;SDS011;17676;52.254;4.490;2023-02-28T09:11:35;8.30;;;7.17;;
31004;SDS011;17676;52.254;4.490;2023-02-28T09:14:01;10.80;;;8.40;;
31004;SDS011;17676;52.254;4.490;2023-02-28T09:16:28;10.63;;;7.87;;
31004;SDS011;17676;52.254;4.490;2023-02-28T09:18:54;8.93;;;7.60;;
31004;SDS011;17676;52.254;4.490;2023-02-28T09:21:19;10.13;;;7.70;;
31004;SDS011;17676;52.254;4.490;2023-02-28T09:23:46;9.17;;;8.17;;
31004;SDS011;17676;52.254;4.490;2023-02-28T09:26:32;8.90;;;6.83;;
31004;SDS011;17676;52.254;4.490;2023-02-28T09:28:57;13.33;;;7.77;;
31004;SDS011;17676;52.254;4.490;2023-02-28T09:31:25;8.23;;;6.97;;
31004;SDS011;17676;52.254;4.490;2023-02-28T09:33:51;10.40;;;7.17;;
31004;SDS011;17676;52.254;4.490;2023-02-28T09:36:17;9.37;;;6.93;;
31004;SDS011;17676;52.254;4.490;2023-02-28T09:38:42;7.63;;;6.83;;
31004;SDS011;17676;52.254;4.490;2023-02-28T09:41:24;8.27;;;6.83;;
31004;SDS011;17676;52.254;4.490;2023-02-28T09:43:59;7.03;;;5.83;;
31004;SDS011;17676;52.254;4.490;2023-02-28T09:46:35;7.60;;;6.23;;
31004;SDS011;17676;52.254;4.490;2023-02-28T09:49:07;7.27;;;5.93;;
31004;SDS011;17676;52.254;4.490;2023-02-28T09:51:46;8.80;;;5.67;;
31004;SDS011;17676;52.254;4.490;2023-02-28T09:54:20;9.07;;;5.60;;
31004;SDS011;17676;52.254;4.490;2023-02-28T09:56:57;6.50;;;5.40;;
31004;SDS011;17676;52.254;4.490;2023-02-28T10:06:54;5.83;;;3.50;;
31004;SDS011;17676;52.254;4.490;2023-02-28T10:09:32;4.30;;;3.33;;
31004;SDS011;17676;52.254;4.490;2023-02-28T10:12:03;3.03;;;2.60;;
31004;SDS011;17676;52.254;4.490;2023-02-28T10:14:33;6.00;;;3.40;;
31004;SDS011;17676;52.254;4.490;2023-02-28T10:21:56;4.33;;;2.93;;
31004;SDS011;17676;52.254;4.490;2023-02-28T10:24:42;2.53;;;2.33;;
31004;SDS011;17676;52.254;4.490;2023-02-28T10:27:14;2.80;;;2.55;;
31004;SDS011;17676;52.254;4.490;2023-02-28T10:29:42;2.50;;;2.30;;
31004;SDS011;17676;52.254;4.490;2023-02-28T10:32:08;1.98;;;1.77;;
31004;SDS011;17676;52.254;4.490;2023-02-28T10:34:35;4.43;;;2.40;;
31004;SDS011;17676;52.254;4.490;2023-02-28T10:37:01;3.57;;;2.13;;
31004;SDS011;17676;52.254;4.490;2023-02-28T10:42:01;2.47;;;2.27;;
31004;SDS011;17676;52.254;4.490;2023-02-28T10:44:27;2.53;;;2.28;;
31004;SDS011;17676;52.254;4.490;2023-02-28T10:46:52;3.97;;;2.60;;
31004;SDS011;17676;52.254;4.490;2023-02-28T10:49:21;3.13;;;2.20;;
31004;SDS011;17676;52.254;4.490;2023-02-28T10:51:49;2.93;;;2.20;;
31004;SDS011;17676;52.254;4.490;2023-02-28T10:54:16;3.45;;;2.20;;
31004;SDS011;17676;52.254;4.490;2023-02-28T10:56:43;3.17;;;1.73;;
31004;SDS011;17676;52.254;4.490;2023-02-28T11:01:40;1.10;;;0.98;;
31004;SDS011;17676;52.254;4.490;2023-02-28T11:07:01;1.90;;;1.30;;
31004;SDS011;17676;52.254;4.490;2023-02-28T11:09:27;1.50;;;1.00;;
31004;SDS011;17676;52.254;4.490;2023-02-28T11:11:56;1.30;;;1.20;;
31004;SDS011;17676;52.254;4.490;2023-02-28T11:14:33;2.33;;;1.13;;
31004;SDS011;17676;52.254;4.490;2023-02-28T11:19:45;1.73;;;1.30;;
31004;SDS011;17676;52.254;4.490;2023-02-28T11:22:15;2.55;;;1.20;;
31004;SDS011;17676;52.254;4.490;2023-02-28T11:24:44;1.60;;;1.50;;
31004;SDS011;17676;52.254;4.490;2023-02-28T11:27:45;1.38;;;1.10;;
31004;SDS011;17676;52.254;4.490;2023-02-28T11:30:45;2.05;;;0.73;;
31004;SDS011;17676;52.254;4.490;2023-02-28T11:35:47;0.82;;;0.65;;
31004;SDS011;17676;52.254;4.490;2023-02-28T11:38:14;1.70;;;0.90;;
31004;SDS011;17676;52.254;4.490;2023-02-28T11:40:43;2.95;;;0.80;;
31004;SDS011;17676;52.254;4.490;2023-02-28T11:53:14;1.10;;;0.40;;
31004;SDS011;17676;52.254;4.490;2023-02-28T11:55:42;1.75;;;0.50;;
31004;SDS011;17676;52.254;4.490;2023-02-28T12:03:22;0.60;;;0.40;;
31004;SDS011;17676;52.254;4.490;2023-02-28T12:06:02;1.58;;;0.40;;
31004;SDS011;17676;52.254;4.490;2023-02-28T12:11:09;0.93;;;0.30;;
31004;SDS011;17676;52.254;4.490;2023-02-28T12:18:49;1.15;;;0.43;;
31004;SDS011;17676;52.254;4.490;2023-02-28T12:21:19;0.30;;;0.30;;
31004;SDS011;17676;52.254;4.490;2023-02-28T12:23:57;1.08;;;0.45;;
31004;SDS011;17676;52.254;4.490;2023-02-28T12:28:56;0.88;;;0.52;;
31004;SDS011;17676;52.254;4.490;2023-02-28T12:31:24;1.77;;;0.50;;
31004;SDS011;17676;52.254;4.490;2023-02-28T12:33:53;1.27;;;0.60;;
31004;SDS011;17676;52.254;4.490;2023-02-28T12:36:20;1.55;;;0.70;;
31004;SDS011;17676;52.254;4.490;2023-02-28T12:38:49;2.13;;;0.90;;
31004;SDS011;17676;52.254;4.490;2023-02-28T12:41:16;2.03;;;0.60;;
31004;SDS011;17676;52.254;4.490;2023-02-28T12:43:48;2.25;;;0.60;;
31004;SDS011;17676;52.254;4.490;2023-02-28T12:46:17;1.30;;;0.70;;
31004;SDS011;17676;52.254;4.490;2023-02-28T12:48:46;1.60;;;0.70;;
31004;SDS011;17676;52.254;4.490;2023-02-28T12:51:16;1.95;;;0.98;;
31004;SDS011;17676;52.254;4.490;2023-02-28T12:58:59;1.75;;;0.60;;
31004;SDS011;17676;52.254;4.490;2023-02-28T13:09:05;0.90;;;0.68;;
31004;SDS011;17676;52.254;4.490;2023-02-28T13:11:31;1.38;;;0.60;;
31004;SDS011;17676;52.254;4.490;2023-02-28T13:13:58;4.45;;;0.75;;
31004;SDS011;17676;52.254;4.490;2023-02-28T13:16:24;0.70;;;0.70;;
31004;SDS011;17676;52.254;4.490;2023-02-28T13:18:50;1.95;;;0.63;;
31004;SDS011;17676;52.254;4.490;2023-02-28T13:21:24;1.00;;;0.50;;
31004;SDS011;17676;52.254;4.490;2023-02-28T13:29:04;1.30;;;0.60;;
31004;SDS011;17676;52.254;4.490;2023-02-28T13:34:30;0.70;;;0.70;;
31004;SDS011;17676;52.254;4.490;2023-02-28T13:47:29;0.40;;;0.40;;
31004;SDS011;17676;52.254;4.490;2023-02-28T13:50:40;1.65;;;0.80;;
31004;SDS011;17676;52.254;4.490;2023-02-28T13:55:31;0.85;;;0.85;;
31004;SDS011;17676;52.254;4.490;2023-02-28T14:03:17;3.15;;;0.77;;
31004;SDS011;17676;52.254;4.490;2023-02-28T14:05:44;0.82;;;0.50;;
31004;SDS011;17676;52.254;4.490;2023-02-28T14:08:17;0.93;;;0.63;;
31004;SDS011;17676;52.254;4.490;2023-02-28T14:13:13;0.73;;;0.68;;
31004;SDS011;17676;52.254;4.490;2023-02-28T14:15:39;0.50;;;0.50;;
31004;SDS011;17676;52.254;4.490;2023-02-28T14:20:40;1.63;;;0.95;;
31004;SDS011;17676;52.254;4.490;2023-02-28T14:23:16;1.48;;;0.80;;
31004;SDS011;17676;52.254;4.490;2023-02-28T14:25:49;1.23;;;0.82;;
31004;SDS011;17676;52.254;4.490;2023-02-28T14:33:25;1.50;;;0.90;;
31004;SDS011;17676;52.254;4.490;2023-02-28T14:38:24;0.95;;;0.80;;
31004;SDS011;17676;52.254;4.490;2023-02-28T14:40:51;1.80;;;0.90;;
31004;SDS011;17676;52.254;4.490;2023-02-28T14:43:35;2.17;;;1.15;;
31004;SDS011;17676;52.254;4.490;2023-02-28T14:46:02;2.47;;;0.98;;
31004;SDS011;17676;52.254;4.490;2023-02-28T14:48:28;5.47;;;2.58;;
31004;SDS011;17676;52.254;4.490;2023-02-28T14:50:54;3.33;;;2.33;;
31004;SDS011;17676;52.254;4.490;2023-02-28T14:53:22;2.95;;;1.60;;
31004;SDS011;17676;52.254;4.490;2023-02-28T14:55:48;2.88;;;1.10;;
31004;SDS011;17676;52.254;4.490;2023-02-28T14:58:24;2.65;;;1.40;;
31004;SDS011;17676;52.254;4.490;2023-02-28T15:00:51;2.42;;;1.58;;
31004;SDS011;17676;52.254;4.490;2023-02-28T15:03:19;3.30;;;0.80;;
31004;SDS011;17676;52.254;4.490;2023-02-28T15:05:52;0.93;;;0.70;;
31004;SDS011;17676;52.254;4.490;2023-02-28T15:08:18;0.82;;;0.80;;
31004;SDS011;17676;52.254;4.490;2023-02-28T15:10:57;0.95;;;0.60;;
31004;SDS011;17676;52.254;4.490;2023-02-28T15:13:26;0.55;;;0.40;;
31004;SDS011;17676;52.254;4.490;2023-02-28T15:15:58;6.00;;;2.28;;
31004;SDS011;17676;52.254;4.490;2023-02-28T15:20:51;4.10;;;2.20;;
31004;SDS011;17676;52.254;4.490;2023-02-28T15:23:17;3.72;;;2.80;;
31004;SDS011;17676;52.254;4.490;2023-02-28T15:25:43;5.53;;;2.95;;
31004;SDS011;17676;52.254;4.490;2023-02-28T15:28:11;2.88;;;1.00;;
31004;SDS011;17676;52.254;4.490;2023-02-28T15:30:38;1.55;;;1.13;;
31004;SDS011;17676;52.254;4.490;2023-02-28T15:35:41;1.95;;;0.50;;
31004;SDS011;17676;52.254;4.490;2023-02-28T15:38:27;2.78;;;0.80;;
31004;SDS011;17676;52.254;4.490;2023-02-28T15:40:52;1.83;;;0.90;;
31004;SDS011;17676;52.254;4.490;2023-02-28T15:43:39;1.75;;;1.08;;
31004;SDS011;17676;52.254;4.490;2023-02-28T15:48:33;0.65;;;0.65;;
31004;SDS011;17676;52.254;4.490;2023-02-28T15:51:01;0.80;;;0.60;;
31004;SDS011;17676;52.254;4.490;2023-02-28T15:53:36;2.60;;;0.93;;
31004;SDS011;17676;52.254;4.490;2023-02-28T15:56:03;1.38;;;1.02;;
31004;SDS011;17676;52.254;4.490;2023-02-28T15:58:29;1.10;;;0.80;;
31004;SDS011;17676;52.254;4.490;2023-02-28T16:01:04;1.83;;;0.77;;
31004;SDS011;17676;52.254;4.490;2023-02-28T16:09:08;1.75;;;0.88;;
31004;SDS011;17676;52.254;4.490;2023-02-28T16:11:34;1.08;;;0.88;;
31004;SDS011;17676;52.254;4.490;2023-02-28T16:14:01;0.77;;;0.70;;
31004;SDS011;17676;52.254;4.490;2023-02-28T16:16:28;2.05;;;0.70;;
31004;SDS011;17676;52.254;4.490;2023-02-28T16:18:53;1.30;;;0.70;;
31004;SDS011;17676;52.254;4.490;2023-02-28T16:21:19;2.92;;;1.17;;
31004;SDS011;17676;52.254;4.490;2023-02-28T16:23:45;3.00;;;1.05;;
31004;SDS011;17676;52.254;4.490;2023-02-28T16:26:16;1.40;;;0.88;;
31004;SDS011;17676;52.254;4.490;2023-02-28T16:28:43;3.33;;;1.63;;
31004;SDS011;17676;52.254;4.490;2023-02-28T16:31:09;2.17;;;0.90;;
31004;SDS011;17676;52.254;4.490;2023-02-28T16:33:41;2.20;;;0.80;;
31004;SDS011;17676;52.254;4.490;2023-02-28T16:36:09;1.58;;;1.10;;
31004;SDS011;17676;52.254;4.490;2023-02-28T16:38:34;1.63;;;1.53;;
31004;SDS011;17676;52.254;4.490;2023-02-28T16:41:00;1.07;;;0.97;;
31004;SDS011;17676;52.254;4.490;2023-02-28T16:43:25;1.55;;;1.02;;
31004;SDS011;17676;52.254;4.490;2023-02-28T16:45:57;3.95;;;2.05;;
31004;SDS011;17676;52.254;4.490;2023-02-28T16:48:23;4.43;;;1.53;;
31004;SDS011;17676;52.254;4.490;2023-02-28T16:50:49;2.47;;;1.30;;
31004;SDS011;17676;52.254;4.490;2023-02-28T16:53:14;1.60;;;1.37;;
31004;SDS011;17676;52.254;4.490;2023-02-28T16:55:39;1.60;;;1.30;;
31004;SDS011;17676;52.254;4.490;2023-02-28T16:58:05;1.70;;;1.20;;
31004;SDS011;17676;52.254;4.490;2023-02-28T17:00:31;2.20;;;1.40;;
31004;SDS011;17676;52.254;4.490;2023-02-28T17:02:56;6.57;;;1.40;;
31004;SDS011;17676;52.254;4.490;2023-02-28T17:05:21;4.03;;;1.67;;
31004;SDS011;17676;52.254;4.490;2023-02-28T17:07:47;3.13;;;1.87;;
31004;SDS011;17676;52.254;4.490;2023-02-28T17:10:14;4.07;;;2.20;;
31004;SDS011;17676;52.254;4.490;2023-02-28T17:12:40;3.40;;;2.20;;
31004;SDS011;17676;52.254;4.490;2023-02-28T17:15:05;3.97;;;2.27;;
31004;SDS011;17676;52.254;4.490;2023-02-28T17:17:31;4.13;;;3.37;;
31004;SDS011;17676;52.254;4.490;2023-02-28T17:19:56;4.20;;;3.23;;
31004;SDS011;17676;52.254;4.490;2023-02-28T17:22:22;4.60;;;2.63;;